createdAt,value
2023-03-06T00:00:53.169Z,78.19
2023-03-06T00:01:56.596Z,76.94
2023-03-06T00:03:00.182Z,75.79
2023-03-06T00:04:03.721Z,75.78
2023-03-06T00:05:07.823Z,75.84
2023-03-06T00:06:13.536Z,76.04
2023-03-06T00:07:17.896Z,75.23
2023-03-06T00:08:22.610Z,75.41
2023-03-06T00:09:25.945Z,76.70
2023-03-06T00:10:31.721Z,75.37
2023-03-06T00:11:34.939Z,74.88
2023-03-06T00:12:39.972Z,74.23
2023-03-06T00:13:43.624Z,75.48
2023-03-06T00:14:47.512Z,75.27
2023-03-06T00:15:52.414Z,74.42
2023-03-06T00:16:59.327Z,74.60
2023-03-06T00:18:07.221Z,73.93
2023-03-06T00:19:10.523Z,75.26
2023-03-06T00:20:14.572Z,75.12
2023-03-06T00:21:19.928Z,74.55
2023-03-06T00:22:23.434Z,75.03
2023-03-06T00:23:28.600Z,74.50
2023-03-06T00:24:30.848Z,74.62
2023-03-06T00:25:37.395Z,74.75
2023-03-06T00:26:42.884Z,75.99
2023-03-06T00:27:45.864Z,74.38
2023-03-06T00:28:48.783Z,75.34
2023-03-06T00:29:57.785Z,74.59
2023-03-06T00:31:01.606Z,75.44
2023-03-06T00:32:05.215Z,75.41
2023-03-06T00:33:10.482Z,75.59
2023-03-06T00:34:13.806Z,74.96
2023-03-06T00:35:18.640Z,75.17
2023-03-06T00:36:22.875Z,76.16
2023-03-06T00:37:33.703Z,75.83
2023-03-06T00:38:38.159Z,76.35
2023-03-06T00:39:44.219Z,76.85
2023-03-06T00:40:50.935Z,76.79
2023-03-06T00:41:54.191Z,77.24
2023-03-06T00:42:57.744Z,78.22
2023-03-06T00:44:01.461Z,78.76
2023-03-06T00:45:04.146Z,77.88
2023-03-06T00:46:08.680Z,78.33
2023-03-06T00:47:11.613Z,77.55
2023-03-06T00:48:15.778Z,77.38
2023-03-06T00:49:19.042Z,77.21
2023-03-06T00:50:22.660Z,77.19
2023-03-06T00:51:26.166Z,78.72
2023-03-06T00:52:29.664Z,79.20
2023-03-06T00:53:33.004Z,79.06
2023-03-06T00:54:35.627Z,78.37
2023-03-06T00:55:39.135Z,77.71
2023-03-06T00:56:42.012Z,78.35
2023-03-06T00:57:45.727Z,77.78
2023-03-06T00:58:49.161Z,77.28
2023-03-06T00:59:54.827Z,78.00
2023-03-06T01:00:58.693Z,77.19
2023-03-06T01:02:02.727Z,76.55
2023-03-06T01:03:07.207Z,76.45
2023-03-06T01:04:10.929Z,76.49
2023-03-06T01:05:15.780Z,76.79
2023-03-06T01:06:19.300Z,76.99
2023-03-06T01:07:22.480Z,77.23
2023-03-06T01:08:25.997Z,77.14
2023-03-06T01:09:32.414Z,77.32
2023-03-06T01:10:38.568Z,78.72
2023-03-06T01:11:43.120Z,79.03
2023-03-06T01:12:48.266Z,78.46
2023-03-06T01:13:51.772Z,79.26
2023-03-06T01:14:56.874Z,80.34
2023-03-06T01:16:07.407Z,80.97
2023-03-06T01:17:15.240Z,81.64
2023-03-06T01:18:19.536Z,81.37
2023-03-06T01:19:26.007Z,82.91
2023-03-06T01:20:29.354Z,83.12
2023-03-06T01:21:33.254Z,84.22
2023-03-06T01:22:36.730Z,84.93
2023-03-06T01:23:40.656Z,87.48
2023-03-06T01:24:44.161Z,89.83
2023-03-06T01:25:49.115Z,89.73
2023-03-06T01:26:54.405Z,91.20
2023-03-06T01:27:58.117Z,91.76
2023-03-06T01:29:03.458Z,93.09
2023-03-06T01:30:06.793Z,94.97
2023-03-06T01:31:10.725Z,95.96
2023-03-06T01:32:14.148Z,96.90
2023-03-06T01:33:18.996Z,97.71
2023-03-06T01:34:22.593Z,98.01
2023-03-06T01:35:26.235Z,98.64
2023-03-06T01:36:30.864Z,98.84
2023-03-06T01:37:36.798Z,99.30
2023-03-06T01:38:39.234Z,99.44
2023-03-06T01:39:42.784Z,99.76
2023-03-06T01:40:46.026Z,99.39
2023-03-06T01:41:49.243Z,100.00
2023-03-06T01:42:51.895Z,100.00
2023-03-06T01:43:54.769Z,100.00
2023-03-06T01:44:59.677Z,100.00
2023-03-06T01:46:23.715Z,100.00
2023-03-06T01:47:27.142Z,100.00
2023-03-06T01:48:29.681Z,100.00
2023-03-06T01:49:35.950Z,100.00
2023-03-06T01:50:39.825Z,100.00
2023-03-06T01:51:48.670Z,100.00
2023-03-06T01:52:54.971Z,100.00
2023-03-06T01:53:59.462Z,100.00
2023-03-06T01:55:14.454Z,100.00
2023-03-06T01:56:18.135Z,100.00
2023-03-06T01:57:21.955Z,100.00
2023-03-06T01:58:25.361Z,100.00
2023-03-06T01:59:31.257Z,100.00
2023-03-06T02:00:36.363Z,100.00
2023-03-06T02:01:40.777Z,100.00
2023-03-06T02:02:48.572Z,100.00
2023-03-06T02:03:51.540Z,100.00
2023-03-06T02:04:54.802Z,100.00
2023-03-06T02:05:58.558Z,100.00
2023-03-06T02:07:05.051Z,100.00
2023-03-06T02:08:12.001Z,100.00
2023-03-06T02:09:17.639Z,100.00
2023-03-06T02:10:22.106Z,100.00
2023-03-06T02:11:25.389Z,100.00
2023-03-06T02:12:29.198Z,100.00
2023-03-06T02:13:33.019Z,100.00
2023-03-06T02:14:36.466Z,100.00
2023-03-06T02:15:39.711Z,100.00
2023-03-06T02:16:46.841Z,100.00
2023-03-06T02:17:54.362Z,100.00
2023-03-06T02:18:59.722Z,100.00
2023-03-06T02:20:22.770Z,100.00
2023-03-06T02:21:29.342Z,100.00
2023-03-06T02:22:36.927Z,100.00
2023-03-06T02:23:45.193Z,100.00
2023-03-06T02:24:57.402Z,100.00
2023-03-06T02:26:00.766Z,100.00
2023-03-06T02:27:05.212Z,100.00
2023-03-06T02:28:09.857Z,100.00
2023-03-06T02:29:13.685Z,100.00
2023-03-06T02:30:18.138Z,100.00
2023-03-06T02:31:23.538Z,100.00
2023-03-06T02:32:26.371Z,100.00
2023-03-06T02:33:31.405Z,100.00
2023-03-06T02:34:39.351Z,100.00
2023-03-06T02:35:49.659Z,100.00
2023-03-06T02:36:54.818Z,100.00
2023-03-06T02:37:59.274Z,100.00
2023-03-06T02:39:02.890Z,100.00
2023-03-06T02:40:12.969Z,100.00
2023-03-06T02:41:16.995Z,100.00
2023-03-06T02:42:24.884Z,100.00
2023-03-06T02:43:36.569Z,100.00
2023-03-06T02:44:40.147Z,100.00
2023-03-06T02:45:46.738Z,100.00
2023-03-06T02:46:49.129Z,100.00
2023-03-06T02:47:52.028Z,100.00
2023-03-06T02:48:56.556Z,100.00
2023-03-06T02:50:00.200Z,100.00
2023-03-06T02:51:02.957Z,100.00
2023-03-06T02:52:07.815Z,100.00
2023-03-06T02:53:13.405Z,100.00
2023-03-06T02:54:17.946Z,100.00
2023-03-06T02:55:22.608Z,100.00
2023-03-06T02:56:26.010Z,100.00
2023-03-06T02:57:29.340Z,100.00
2023-03-06T02:58:32.904Z,100.00
2023-03-06T02:59:35.598Z,100.00
2023-03-06T03:00:40.319Z,100.00
2023-03-06T03:01:44.567Z,100.00
2023-03-06T03:02:47.834Z,100.00
2023-03-06T03:03:52.104Z,100.00
2023-03-06T03:04:58.637Z,100.00
2023-03-06T03:06:04.789Z,100.00
2023-03-06T03:07:08.878Z,100.00
2023-03-06T03:08:13.231Z,100.00
2023-03-06T03:09:16.619Z,100.00
2023-03-06T03:10:21.077Z,100.00
2023-03-06T03:11:26.357Z,100.00
2023-03-06T03:12:31.323Z,100.00
2023-03-06T03:13:37.126Z,100.00
2023-03-06T03:14:41.915Z,100.00
2023-03-06T03:15:45.634Z,100.00
2023-03-06T03:16:49.522Z,100.00
2023-03-06T03:17:54.071Z,100.00
2023-03-06T03:18:57.476Z,100.00
2023-03-06T03:20:02.028Z,100.00
2023-03-06T03:21:11.201Z,100.00
2023-03-06T03:22:14.183Z,100.00
2023-03-06T03:23:17.364Z,100.00
2023-03-06T03:24:19.937Z,100.00
2023-03-06T03:25:25.712Z,100.00
2023-03-06T03:26:32.255Z,100.00
2023-03-06T03:27:37.351Z,100.00
2023-03-06T03:28:40.090Z,100.00
2023-03-06T03:29:45.581Z,100.00
2023-03-06T03:30:48.203Z,100.00
2023-03-06T03:31:52.078Z,100.00
2023-03-06T03:32:55.691Z,100.00
2023-03-06T03:33:59.175Z,100.00
2023-03-06T03:35:06.488Z,100.00
2023-03-06T03:36:12.761Z,100.00
2023-03-06T03:37:18.463Z,100.00
2023-03-06T03:38:22.483Z,100.00
2023-03-06T03:39:27.340Z,100.00
2023-03-06T03:40:32.540Z,100.00
2023-03-06T03:41:37.406Z,100.00
2023-03-06T03:42:42.496Z,100.00
2023-03-06T03:43:46.400Z,100.00
2023-03-06T03:44:50.633Z,100.00
2023-03-06T03:45:55.078Z,100.00
2023-03-06T03:46:59.954Z,100.00
2023-03-06T03:48:06.105Z,100.00
2023-03-06T03:49:08.839Z,100.00
2023-03-06T03:50:12.614Z,100.00
2023-03-06T03:51:16.154Z,100.00
2023-03-06T03:52:23.187Z,100.00
2023-03-06T03:53:25.566Z,100.00
2023-03-06T03:54:34.600Z,100.00
2023-03-06T03:55:39.154Z,100.00
2023-03-06T03:56:41.721Z,100.00
2023-03-06T03:57:47.109Z,100.00
2023-03-06T03:58:51.125Z,100.00
2023-03-06T03:59:54.533Z,100.00
2023-03-06T04:01:00.788Z,100.00
2023-03-06T04:02:08.740Z,100.00
2023-03-06T04:03:14.967Z,100.00
2023-03-06T04:04:19.927Z,100.00
2023-03-06T04:05:23.754Z,100.00
2023-03-06T04:06:29.576Z,100.00
2023-03-06T04:07:33.270Z,100.00
2023-03-06T04:08:37.079Z,100.00
2023-03-06T04:09:40.374Z,100.00
2023-03-06T04:10:45.783Z,100.00
2023-03-06T04:11:49.579Z,100.00
2023-03-06T04:12:53.408Z,100.00
2023-03-06T04:13:57.851Z,100.00
2023-03-06T04:15:00.729Z,100.00
2023-03-06T04:16:03.719Z,100.00
2023-03-06T04:17:08.582Z,100.00
2023-03-06T04:18:11.963Z,100.00
2023-03-06T04:19:16.629Z,100.00
2023-03-06T04:20:20.343Z,100.00
2023-03-06T04:21:24.596Z,100.00
2023-03-06T04:22:29.422Z,100.00
2023-03-06T04:23:32.403Z,100.00
2023-03-06T04:24:35.932Z,100.00
2023-03-06T04:25:39.747Z,100.00
2023-03-06T04:26:44.925Z,100.00
2023-03-06T04:27:49.599Z,100.00
2023-03-06T04:28:52.972Z,100.00
2023-03-06T04:29:56.902Z,100.00
2023-03-06T04:31:00.513Z,100.00
2023-03-06T04:32:04.543Z,100.00
2023-03-06T04:33:08.982Z,100.00
2023-03-06T04:34:30.804Z,100.00
2023-03-06T04:35:35.776Z,100.00
2023-03-06T04:36:44.573Z,100.00
2023-03-06T04:37:48.490Z,100.00
2023-03-06T04:38:54.220Z,100.00
2023-03-06T04:39:58.434Z,100.00
2023-03-06T04:41:02.989Z,100.00
2023-03-06T04:42:06.469Z,100.00
2023-03-06T04:43:08.731Z,100.00
2023-03-06T04:44:14.952Z,100.00
2023-03-06T04:45:18.473Z,100.00
2023-03-06T04:46:22.067Z,100.00
2023-03-06T04:47:31.233Z,100.00
2023-03-06T04:48:37.573Z,100.00
2023-03-06T04:49:40.937Z,100.00
2023-03-06T04:50:44.567Z,100.00
2023-03-06T04:51:46.903Z,100.00
2023-03-06T04:52:50.180Z,100.00
2023-03-06T04:53:53.610Z,100.00
2023-03-06T04:54:56.925Z,100.00
2023-03-06T04:56:00.875Z,100.00
2023-03-06T04:57:04.428Z,100.00
2023-03-06T04:58:11.890Z,100.00
2023-03-06T04:59:15.084Z,100.00
2023-03-06T05:00:21.838Z,100.00
2023-03-06T05:01:25.180Z,100.00
2023-03-06T05:02:28.672Z,100.00
2023-03-06T05:03:32.233Z,100.00
2023-03-06T05:04:35.426Z,100.00
2023-03-06T05:05:39.693Z,100.00
2023-03-06T05:06:42.545Z,100.00
2023-03-06T05:07:46.473Z,100.00
2023-03-06T05:08:49.801Z,100.00
2023-03-06T05:09:54.624Z,100.00
2023-03-06T05:10:59.728Z,100.00
2023-03-06T05:12:03.850Z,100.00
2023-03-06T05:13:07.338Z,100.00
2023-03-06T05:14:10.635Z,100.00
2023-03-06T05:15:13.296Z,100.00
2023-03-06T05:16:17.268Z,100.00
2023-03-06T05:17:20.512Z,100.00
2023-03-06T05:18:23.191Z,100.00
2023-03-06T05:19:27.619Z,100.00
2023-03-06T05:20:30.203Z,100.00
2023-03-06T05:21:33.809Z,100.00
2023-03-06T05:22:39.209Z,100.00
2023-03-06T05:23:45.648Z,100.00
2023-03-06T05:24:49.205Z,100.00
2023-03-06T05:25:51.475Z,100.00
2023-03-06T05:26:55.827Z,100.00
2023-03-06T05:27:59.226Z,100.00
2023-03-06T05:29:02.731Z,100.00
2023-03-06T05:30:05.920Z,100.00
2023-03-06T05:31:09.627Z,100.00
2023-03-06T05:32:12.987Z,100.00
2023-03-06T05:33:16.022Z,100.00
2023-03-06T05:34:19.474Z,100.00
2023-03-06T05:35:24.745Z,100.00
2023-03-06T05:36:31.133Z,100.00
2023-03-06T05:37:36.521Z,100.00
2023-03-06T05:38:39.802Z,100.00
2023-03-06T05:39:43.009Z,100.00
2023-03-06T05:40:46.500Z,100.00
2023-03-06T05:41:48.753Z,100.00
2023-03-06T05:42:52.168Z,100.00
2023-03-06T05:43:55.449Z,100.00
2023-03-06T05:45:01.994Z,100.00
2023-03-06T05:46:07.111Z,100.00
2023-03-06T05:47:13.344Z,100.00
2023-03-06T05:48:16.681Z,100.00
2023-03-06T05:49:20.288Z,100.00
2023-03-06T05:50:26.833Z,100.00
2023-03-06T05:51:30.755Z,100.00
2023-03-06T05:52:34.051Z,100.00
2023-03-06T05:53:37.558Z,100.00
2023-03-06T05:54:41.685Z,100.00
2023-03-06T05:55:44.596Z,100.00
2023-03-06T05:56:48.906Z,100.00
2023-03-06T05:57:52.620Z,100.00
2023-03-06T05:58:59.064Z,100.00
2023-03-06T06:00:01.287Z,100.00
2023-03-06T06:01:11.908Z,100.00
2023-03-06T06:02:15.529Z,100.00
2023-03-06T06:03:19.291Z,100.00
2023-03-06T06:04:24.826Z,100.00
2023-03-06T06:05:30.314Z,100.00
2023-03-06T06:06:33.299Z,100.00
2023-03-06T06:07:36.383Z,99.99
2023-03-06T06:08:40.863Z,99.16
2023-03-06T06:09:46.162Z,97.24
2023-03-06T06:10:53.225Z,95.48
2023-03-06T06:12:03.245Z,92.72
2023-03-06T06:13:06.756Z,90.16
2023-03-06T06:14:11.608Z,87.83
2023-03-06T06:15:14.799Z,86.06
2023-03-06T06:16:19.445Z,84.91
2023-03-06T06:17:22.539Z,83.96
2023-03-06T06:18:26.055Z,82.15
2023-03-06T06:19:30.927Z,82.28
2023-03-06T06:20:34.525Z,81.83
2023-03-06T06:21:39.000Z,81.55
2023-03-06T06:22:41.666Z,82.01
2023-03-06T06:23:44.624Z,82.37
2023-03-06T06:24:48.770Z,83.74
2023-03-06T06:25:52.355Z,84.47
2023-03-06T06:26:58.766Z,84.64
2023-03-06T06:28:04.066Z,82.53
2023-03-06T06:29:07.189Z,82.28
2023-03-06T06:30:11.914Z,81.57
2023-03-06T06:31:15.113Z,82.42
2023-03-06T06:32:18.756Z,83.52
2023-03-06T06:33:22.335Z,83.68
2023-03-06T06:34:26.462Z,86.23
2023-03-06T06:35:30.634Z,88.26
2023-03-06T06:36:34.440Z,90.89
2023-03-06T06:37:36.652Z,92.00
2023-03-06T06:38:40.169Z,92.77
2023-03-06T06:39:43.490Z,95.43
2023-03-06T06:40:58.403Z,96.69
2023-03-06T06:42:14.706Z,98.37
2023-03-06T06:43:00.916Z,100.00
2023-03-06T06:44:08.811Z,100.00
2023-03-06T06:45:13.319Z,99.42
2023-03-06T06:46:53.321Z,99.76
2023-03-06T06:47:24.442Z,99.40
2023-03-06T06:48:27.893Z,98.15
2023-03-06T06:49:32.796Z,97.72
2023-03-06T06:50:37.187Z,96.11
2023-03-06T06:51:41.042Z,95.75
2023-03-06T06:52:44.247Z,95.56
2023-03-06T06:53:46.890Z,95.27
2023-03-06T06:54:52.588Z,93.65
2023-03-06T06:55:57.822Z,92.82
2023-03-06T06:57:01.165Z,92.41
2023-03-06T06:58:05.515Z,91.71
2023-03-06T06:59:16.447Z,92.56
2023-03-06T07:00:16.415Z,91.61
2023-03-06T07:01:20.207Z,90.81
2023-03-06T07:02:24.750Z,89.93
2023-03-06T07:03:29.200Z,88.90
2023-03-06T07:04:35.215Z,88.33
2023-03-06T07:05:38.516Z,87.88
2023-03-06T07:06:42.181Z,87.64
2023-03-06T07:07:45.426Z,87.31
2023-03-06T07:08:49.017Z,87.76
2023-03-06T07:09:51.464Z,86.48
2023-03-06T07:10:54.868Z,86.09
2023-03-06T07:11:57.742Z,85.93
2023-03-06T07:13:00.217Z,85.62
2023-03-06T07:14:03.616Z,84.98
2023-03-06T07:15:07.952Z,84.72
2023-03-06T07:16:11.954Z,84.64
2023-03-06T07:17:15.302Z,84.26
2023-03-06T07:18:18.429Z,84.47
2023-03-06T07:19:21.757Z,84.41
2023-03-06T07:20:25.386Z,84.23
2023-03-06T07:21:28.768Z,84.32
2023-03-06T07:22:50.013Z,83.76
2023-03-06T07:23:41.433Z,83.74
2023-03-06T07:24:45.041Z,84.76
2023-03-06T07:25:48.752Z,85.00
2023-03-06T07:26:52.365Z,84.03
2023-03-06T07:27:55.751Z,84.11
2023-03-06T07:29:00.129Z,83.94
2023-03-06T07:30:02.864Z,82.59
2023-03-06T07:31:10.261Z,82.04
2023-03-06T07:32:12.927Z,81.37
2023-03-06T07:33:16.138Z,81.50
2023-03-06T07:34:19.612Z,80.32
2023-03-06T07:35:23.848Z,78.76
2023-03-06T07:36:27.354Z,77.28
2023-03-06T07:37:31.173Z,74.90
2023-03-06T07:38:34.394Z,71.35
2023-03-06T07:39:37.589Z,65.71
2023-03-06T07:40:43.986Z,63.03
2023-03-06T07:41:47.384Z,63.88
2023-03-06T07:42:50.892Z,66.25
2023-03-06T07:43:57.012Z,66.86
2023-03-06T07:45:03.665Z,69.05
2023-03-06T07:46:07.757Z,66.19
2023-03-06T07:47:12.846Z,66.12
2023-03-06T07:48:16.762Z,68.53
2023-03-06T07:49:20.007Z,69.65
2023-03-06T07:50:23.548Z,69.90
2023-03-06T07:51:27.090Z,68.26
2023-03-06T07:52:31.736Z,67.42
2023-03-06T07:53:35.866Z,65.98
2023-03-06T07:54:40.417Z,63.99
2023-03-06T07:55:43.711Z,64.18
2023-03-06T07:56:46.999Z,64.22
2023-03-06T07:57:51.237Z,62.74
2023-03-06T07:58:55.980Z,62.96
2023-03-06T07:59:58.488Z,62.17
2023-03-06T08:01:06.346Z,61.78
2023-03-06T08:02:11.532Z,61.00
2023-03-06T08:03:15.837Z,60.61
2023-03-06T08:04:19.645Z,58.69
2023-03-06T08:05:23.103Z,57.53
2023-03-06T08:06:32.032Z,58.79
2023-03-06T08:07:35.428Z,58.24
2023-03-06T08:08:40.185Z,53.83
2023-03-06T08:09:42.341Z,54.64
2023-03-06T08:10:50.124Z,54.50
2023-03-06T08:11:54.402Z,55.26
2023-03-06T08:12:56.713Z,58.42
2023-03-06T08:14:00.466Z,59.21
2023-03-06T08:15:03.120Z,61.64
2023-03-06T08:16:08.015Z,61.41
2023-03-06T08:17:11.346Z,62.15
2023-03-06T08:18:13.596Z,65.09
2023-03-06T08:19:16.813Z,62.59
2023-03-06T08:20:20.634Z,62.89
2023-03-06T08:21:26.344Z,65.27
2023-03-06T08:22:29.081Z,65.54
2023-03-06T08:23:35.356Z,66.15
2023-03-06T08:24:39.459Z,66.72
2023-03-06T08:25:42.844Z,68.58
2023-03-06T08:26:46.023Z,68.84
2023-03-06T08:27:49.641Z,69.58
2023-03-06T08:28:56.175Z,71.74
2023-03-06T08:29:59.887Z,70.49
2023-03-06T08:31:11.283Z,69.22
2023-03-06T08:32:14.593Z,72.11
2023-03-06T08:33:19.117Z,74.18
2023-03-06T08:34:28.032Z,77.87
2023-03-06T08:35:31.433Z,78.46
2023-03-06T08:36:35.129Z,76.48
2023-03-06T08:37:37.981Z,76.11
2023-03-06T08:38:41.600Z,75.49
2023-03-06T08:39:44.284Z,77.95
2023-03-06T08:40:48.311Z,77.36
2023-03-06T08:41:51.452Z,77.96
2023-03-06T08:42:55.009Z,78.94
2023-03-06T08:44:00.284Z,76.80
2023-03-06T08:45:03.572Z,77.67
2023-03-06T08:46:07.976Z,76.54
2023-03-06T08:47:12.479Z,72.28
2023-03-06T08:48:17.019Z,73.73
2023-03-06T08:49:19.368Z,74.58
2023-03-06T08:50:22.877Z,71.98
2023-03-06T08:51:26.166Z,71.23
2023-03-06T08:52:31.142Z,72.86
2023-03-06T08:53:42.987Z,71.06
2023-03-06T08:54:39.603Z,73.72
2023-03-06T08:55:43.224Z,72.23
2023-03-06T08:56:46.834Z,72.46
2023-03-06T08:57:49.129Z,73.26
2023-03-06T08:58:55.785Z,73.19
2023-03-06T09:00:11.544Z,69.56
2023-03-06T09:01:20.650Z,70.81
2023-03-06T09:02:24.128Z,70.51
2023-03-06T09:03:27.697Z,68.49
2023-03-06T09:04:32.979Z,67.79
2023-03-06T09:05:39.197Z,67.95
2023-03-06T09:06:43.978Z,69.43
2023-03-06T09:07:47.150Z,69.70
2023-03-06T09:08:52.972Z,64.66
2023-03-06T09:09:59.030Z,66.69
2023-03-06T09:11:03.215Z,63.26
2023-03-06T09:12:05.784Z,62.87
2023-03-06T09:13:17.193Z,65.25
2023-03-06T09:14:23.578Z,66.10
2023-03-06T09:15:27.170Z,65.90
2023-03-06T09:16:34.088Z,66.64
2023-03-06T09:17:38.415Z,66.42
2023-03-06T09:18:45.624Z,68.69
2023-03-06T09:19:48.919Z,71.32
2023-03-06T09:20:51.782Z,71.67
2023-03-06T09:21:56.002Z,71.43
2023-03-06T09:22:59.839Z,71.97
2023-03-06T09:24:04.392Z,69.84
2023-03-06T09:25:09.665Z,67.93
2023-03-06T09:26:14.313Z,70.47
2023-03-06T09:27:17.614Z,71.14
2023-03-06T09:28:21.051Z,67.42
2023-03-06T09:29:24.410Z,67.58
2023-03-06T09:30:28.778Z,68.48
2023-03-06T09:31:32.681Z,71.28
2023-03-06T09:32:36.802Z,70.51
2023-03-06T09:33:40.324Z,73.56
2023-03-06T09:34:43.827Z,71.50
2023-03-06T09:35:49.003Z,70.48
2023-03-06T09:36:57.459Z,71.15
2023-03-06T09:37:57.579Z,70.99
2023-03-06T09:39:00.248Z,68.21
2023-03-06T09:40:06.368Z,70.65
2023-03-06T09:41:10.620Z,71.56
2023-03-06T09:42:15.869Z,69.38
2023-03-06T09:43:22.518Z,68.39
2023-03-06T09:44:30.711Z,67.58
2023-03-06T09:45:36.006Z,65.98
2023-03-06T09:46:44.565Z,68.99
2023-03-06T09:47:52.125Z,68.45
2023-03-06T09:49:10.876Z,68.33
2023-03-06T09:50:23.077Z,68.70
2023-03-06T09:51:28.336Z,68.09
2023-03-06T09:52:37.336Z,68.58
2023-03-06T09:54:06.233Z,67.64
2023-03-06T09:55:17.364Z,69.14
2023-03-06T09:56:24.107Z,71.67
2023-03-06T09:57:29.176Z,71.30
2023-03-06T09:58:33.727Z,71.24
2023-03-06T09:59:41.202Z,66.73
2023-03-06T10:00:50.378Z,67.97
2023-03-06T10:01:58.396Z,67.29
2023-03-06T10:03:11.915Z,66.93
2023-03-06T10:04:30.912Z,63.72
2023-03-06T10:05:37.913Z,64.52
2023-03-06T10:06:49.132Z,65.05
2023-03-06T10:07:57.132Z,67.07
2023-03-06T10:09:06.615Z,64.97
2023-03-06T10:10:13.034Z,66.10
2023-03-06T10:11:19.130Z,68.31
2023-03-06T10:12:28.992Z,66.14
2023-03-06T10:13:35.861Z,66.24
2023-03-06T10:14:50.429Z,66.54
2023-03-06T10:15:55.846Z,68.89
2023-03-06T10:16:59.317Z,68.99
2023-03-06T10:18:03.273Z,64.33
2023-03-06T10:19:08.629Z,66.63
2023-03-06T10:20:20.070Z,66.75
2023-03-06T10:21:31.789Z,69.61
2023-03-06T10:22:38.986Z,67.71
2023-03-06T10:23:45.524Z,66.35
2023-03-06T10:24:50.570Z,66.58
2023-03-06T10:26:05.003Z,67.10
2023-03-06T10:27:28.095Z,69.15
2023-03-06T10:28:35.319Z,70.12
2023-03-06T10:29:41.014Z,71.02
2023-03-06T10:30:52.219Z,65.40
2023-03-06T10:31:58.512Z,64.33
2023-03-06T10:33:03.899Z,63.96
2023-03-06T10:34:17.232Z,67.52
2023-03-06T10:35:23.152Z,66.01
2023-03-06T10:36:29.047Z,65.69
2023-03-06T10:37:32.668Z,66.76
2023-03-06T10:38:39.536Z,66.44
2023-03-06T10:39:43.119Z,66.05
2023-03-06T10:42:15.193Z,66.36
2023-03-06T10:43:17.857Z,62.31
2023-03-06T10:44:26.400Z,61.12
2023-03-06T10:45:40.548Z,61.53
2023-03-06T10:46:38.609Z,62.27
2023-03-06T10:47:41.567Z,62.60
2023-03-06T10:48:47.087Z,61.90
2023-03-06T10:50:01.555Z,59.66
2023-03-06T10:51:25.575Z,60.85
2023-03-06T10:52:29.874Z,61.62
2023-03-06T10:53:33.304Z,59.22
2023-03-06T10:54:39.394Z,62.18
2023-03-06T10:55:44.606Z,58.55
2023-03-06T10:56:48.696Z,57.90
2023-03-06T10:57:55.232Z,60.83
2023-03-06T10:59:15.762Z,61.57
2023-03-06T11:00:36.646Z,59.86
2023-03-06T11:01:45.684Z,60.07
2023-03-06T11:03:05.851Z,61.69
2023-03-06T11:04:31.024Z,59.81
2023-03-06T11:05:34.199Z,59.86
2023-03-06T11:06:38.947Z,62.33
2023-03-06T11:07:46.482Z,62.23
2023-03-06T11:08:48.871Z,62.02
2023-03-06T11:09:58.954Z,64.08
2023-03-06T11:11:07.154Z,64.76
2023-03-06T11:12:19.440Z,62.76
2023-03-06T11:13:23.783Z,58.55
2023-03-06T11:14:27.933Z,57.79
2023-03-06T11:15:34.868Z,58.71
2023-03-06T11:16:39.318Z,59.76
2023-03-06T11:17:50.438Z,58.19
2023-03-06T11:19:07.123Z,55.10
2023-03-06T11:20:25.765Z,54.64
2023-03-06T11:21:31.791Z,55.24
2023-03-06T11:22:36.227Z,56.08
2023-03-06T11:23:40.553Z,56.67
2023-03-06T11:24:45.728Z,52.85
2023-03-06T11:25:50.997Z,50.87
2023-03-06T11:26:55.656Z,52.69
2023-03-06T11:28:00.941Z,53.04
2023-03-06T11:29:21.811Z,52.61
2023-03-06T11:30:27.900Z,52.66
2023-03-06T11:31:32.392Z,54.05
2023-03-06T11:32:45.144Z,53.30
2023-03-06T11:33:56.392Z,51.40
2023-03-06T11:35:04.064Z,51.30
2023-03-06T11:36:12.249Z,53.84
2023-03-06T11:37:31.487Z,51.41
2023-03-06T11:38:43.925Z,52.64
2023-03-06T11:39:50.147Z,51.81
2023-03-06T11:40:55.748Z,51.71
2023-03-06T11:42:05.381Z,53.00
2023-03-06T11:43:28.330Z,52.40
2023-03-06T11:44:38.155Z,53.45
2023-03-06T11:46:00.848Z,52.19
2023-03-06T11:47:19.857Z,51.30
2023-03-06T11:48:37.496Z,50.11
2023-03-06T11:49:48.890Z,51.00
2023-03-06T11:50:56.743Z,52.58
2023-03-06T11:52:04.736Z,52.15
2023-03-06T11:53:15.390Z,50.76
2023-03-06T11:54:21.561Z,52.60
2023-03-06T11:55:29.734Z,49.61
2023-03-06T11:57:59.704Z,48.27
2023-03-06T11:59:13.073Z,47.17
2023-03-06T12:00:32.054Z,46.99
2023-03-06T12:01:57.927Z,47.21
2023-03-06T12:03:24.796Z,48.18
2023-03-06T12:04:44.491Z,48.15
2023-03-06T12:05:48.637Z,46.12
2023-03-06T12:06:53.921Z,45.91
2023-03-06T12:08:05.361Z,46.12
2023-03-06T12:09:16.905Z,46.72
2023-03-06T12:10:23.844Z,47.66
2023-03-06T12:11:32.681Z,48.48
2023-03-06T12:12:41.331Z,47.21
2023-03-06T12:13:46.075Z,45.93
2023-03-06T12:14:59.047Z,47.43
2023-03-06T12:16:24.005Z,47.16
2023-03-06T12:17:32.413Z,45.26
2023-03-06T12:18:37.697Z,46.62
2023-03-06T12:19:52.569Z,46.16
2023-03-06T12:20:57.761Z,44.45
2023-03-06T12:22:02.920Z,44.09
2023-03-06T12:23:28.058Z,44.63
2023-03-06T12:24:45.875Z,46.25
2023-03-06T12:25:50.633Z,46.25
2023-03-06T12:28:10.373Z,46.22
2023-03-06T12:29:30.599Z,47.99
2023-03-06T12:30:45.397Z,47.10
2023-03-06T12:31:59.227Z,47.16
2023-03-06T12:33:07.759Z,47.27
2023-03-06T12:34:13.030Z,46.00
2023-03-06T12:35:18.583Z,47.94
2023-03-06T12:36:26.831Z,44.70
2023-03-06T12:37:32.515Z,45.14
2023-03-06T12:38:41.672Z,43.90
2023-03-06T12:40:11.635Z,44.28
2023-03-06T12:41:28.598Z,44.23
2023-03-06T12:42:45.457Z,44.36
2023-03-06T12:44:11.197Z,43.46
2023-03-06T12:45:31.397Z,44.71
2023-03-06T12:46:43.286Z,42.45
2023-03-06T12:47:47.941Z,42.89
2023-03-06T12:48:54.893Z,43.33
2023-03-06T12:49:59.013Z,42.57
2023-03-06T12:51:02.746Z,44.94
2023-03-06T12:52:08.893Z,43.07
2023-03-06T12:53:16.854Z,40.17
2023-03-06T12:54:22.914Z,41.65
2023-03-06T12:55:27.728Z,43.37
2023-03-06T12:56:32.052Z,42.29
2023-03-06T12:57:37.769Z,42.28
2023-03-06T12:58:45.033Z,43.11
2023-03-06T12:59:49.090Z,42.51
2023-03-06T13:01:04.271Z,41.65
2023-03-06T13:02:11.329Z,39.40
2023-03-06T13:03:23.306Z,40.05
2023-03-06T13:04:39.106Z,41.67
2023-03-06T13:05:59.332Z,42.37
2023-03-06T13:07:07.954Z,42.87
2023-03-06T13:08:22.114Z,42.79
2023-03-06T13:09:26.453Z,42.30
2023-03-06T13:10:37.246Z,43.95
2023-03-06T13:12:00.826Z,44.23
2023-03-06T13:13:05.902Z,44.78
2023-03-06T13:14:28.065Z,44.16
2023-03-06T13:15:32.968Z,45.23
2023-03-06T13:16:36.259Z,46.36
2023-03-06T13:17:39.772Z,44.57
2023-03-06T13:18:44.112Z,43.64
2023-03-06T13:19:49.595Z,43.39
2023-03-06T13:20:54.525Z,42.62
2023-03-06T13:21:59.858Z,42.63
2023-03-06T13:23:20.792Z,43.87
2023-03-06T13:24:29.154Z,45.79
2023-03-06T13:25:33.874Z,44.91
2023-03-06T13:26:43.423Z,44.85
2023-03-06T13:27:57.477Z,44.13
2023-03-06T13:29:04.843Z,43.36
2023-03-06T13:30:09.398Z,43.68
2023-03-06T13:31:26.414Z,44.23
2023-03-06T13:32:19.376Z,43.18
2023-03-06T13:33:33.185Z,44.26
2023-03-06T13:34:44.036Z,45.29
2023-03-06T13:35:54.896Z,45.57
2023-03-06T13:37:03.429Z,45.08
2023-03-06T13:38:09.650Z,45.58
2023-03-06T13:39:12.311Z,45.45
2023-03-06T13:40:18.041Z,45.09
2023-03-06T13:41:23.416Z,43.68
2023-03-06T13:42:30.901Z,45.20
2023-03-06T13:43:35.112Z,45.41
2023-03-06T13:44:42.581Z,43.29
2023-03-06T13:45:47.633Z,43.49
2023-03-06T13:46:58.786Z,43.21
2023-03-06T13:48:41.278Z,42.70
2023-03-06T13:49:09.543Z,43.42
2023-03-06T13:50:16.475Z,43.86
2023-03-06T13:51:21.892Z,44.35
2023-03-06T13:52:30.507Z,45.39
2023-03-06T13:53:54.291Z,45.32
2023-03-06T13:55:01.752Z,44.16
2023-03-06T13:56:17.380Z,45.75
2023-03-06T13:57:39.869Z,43.76
2023-03-06T13:58:51.225Z,44.66
2023-03-06T14:00:14.441Z,43.79
2023-03-06T14:01:20.668Z,43.76
2023-03-06T14:02:42.502Z,44.00
2023-03-06T14:04:04.686Z,45.02
2023-03-06T14:05:13.504Z,44.97
2023-03-06T14:06:37.898Z,46.18
2023-03-06T14:07:41.928Z,46.25